Hovedside
METAR-TAF:

METAR-TAF

Lufthavner :

Auckland internasjonale lufthavn

Auckland, New Zealand

breddegrad: 37-01S, lengdegrad: 174-48E, høyde over havet: 7 m

Gjeldene værobservasjon

Denne rapporten ble laget for 32 minutter siden, klokken 17:00 UTC
Vind 6 kt fra Sør-sørvest
Temperatur 12°C
Luftfuktighet 76%
Trykk 1013 hPa
Sikt 10 km eller mer

METAR: NZAA 091700Z AUTO 20006KT 9999 NCD 12/08 Q1013 NOSIG

Tid: 05:32 (17:32 UTC)

Varsel

Denne rapporten ble laget for 6 timer og 18 minutter siden, klokken 11:14 UTC
Varsel gyldig fra 09. klokken 12 UTC til 10. klokken 12 UTC
Vind 10 kt fra Sør-sørvest
Sikt 10 km eller mer
Få skyer i en høyde av 3000 ft
Blir
fra 09. klokken 13 UTC til 09. klokken 15 UTC
Vind 5 kt fra Sørøst
Blir
fra 09. klokken 23 UTC til 10. klokken 01 UTC
Vind 10 kt fra Sørvest

TAF: NZAA 091114Z 0912/1012 20010KT 9999 FEW030 BECMG 0913/0915 14005KT BECMG 0923/1001 22010KT

Værobservasjoner og værvarsel for over 4000 flyplasser (METAR- og TAF-rapporter).

Tilgjengelige stasjoner er representert av de røde og gule prikkene på kartet.

Hold musepekeren over prikken for å se navnet på stasjonen.

Klikk så for å se værobservasjoner og -varsler.

For å forandre kartet kan du klikke på den grønne knappen med svart kryss for å zoome inn, på den grønne knappen med strek for å zoome ut, eller på de grønne pilene for å se tilstøtende kart.


METAR-TAF: